createdAt,value
2017-08-14T00:01:20.738Z,85.80
2017-08-14T00:03:49.048Z,85.90
2017-08-14T00:06:17.391Z,85.80
2017-08-14T00:08:45.704Z,85.70
2017-08-14T00:11:14.043Z,85.70
2017-08-14T00:13:42.355Z,85.60
2017-08-14T00:16:10.707Z,85.40
2017-08-14T00:18:39.018Z,85.30
2017-08-14T00:21:07.359Z,85.80
2017-08-14T00:23:35.664Z,86.00
2017-08-14T00:26:04.009Z,86.90
2017-08-14T00:28:32.314Z,86.20
2017-08-14T00:31:00.612Z,86.10
2017-08-14T00:33:28.952Z,86.00
2017-08-14T00:35:57.263Z,85.60
2017-08-14T00:38:25.599Z,85.70
2017-08-14T00:40:53.918Z,86.20
2017-08-14T00:43:22.252Z,86.50
2017-08-14T00:45:50.554Z,86.40
2017-08-14T00:48:18.883Z,86.30
2017-08-14T00:50:47.199Z,86.30
2017-08-14T00:53:15.539Z,86.10
2017-08-14T00:55:43.852Z,86.10
2017-08-14T00:58:12.170Z,86.10
2017-08-14T01:00:40.512Z,86.40
2017-08-14T01:03:08.830Z,86.40
2017-08-14T01:05:37.179Z,86.40
2017-08-14T01:08:05.490Z,86.30
2017-08-14T01:10:33.828Z,86.20
2017-08-14T01:13:02.152Z,86.30
2017-08-14T01:15:30.487Z,86.40
2017-08-14T01:17:58.800Z,86.30
2017-08-14T01:20:27.147Z,86.10
2017-08-14T01:22:55.462Z,85.90
2017-08-14T01:25:23.771Z,86.00
2017-08-14T01:27:52.103Z,86.10
2017-08-14T01:30:20.418Z,86.00
2017-08-14T01:32:48.765Z,86.90
2017-08-14T01:35:17.070Z,86.60
2017-08-14T01:37:45.404Z,86.10
2017-08-14T01:40:13.712Z,86.00
2017-08-14T01:42:42.038Z,86.10
2017-08-14T01:45:10.351Z,86.10
2017-08-14T01:47:38.682Z,86.10
2017-08-14T01:50:06.991Z,86.80
2017-08-14T01:52:35.351Z,85.90
2017-08-14T01:55:03.667Z,85.90
2017-08-14T01:57:31.972Z,85.80
2017-08-14T02:00:00.315Z,85.90
2017-08-14T02:02:28.640Z,86.10
2017-08-14T02:04:56.982Z,86.10
2017-08-14T02:07:25.302Z,86.00
2017-08-14T02:09:53.644Z,86.10
2017-08-14T02:12:21.963Z,86.10
2017-08-14T02:14:50.299Z,86.00
2017-08-14T02:17:18.606Z,86.20
2017-08-14T02:19:46.944Z,86.30
2017-08-14T02:22:15.275Z,86.20
2017-08-14T02:24:43.584Z,86.30
2017-08-14T02:27:11.929Z,86.30
2017-08-14T02:29:40.248Z,86.50
2017-08-14T02:32:08.588Z,86.50
2017-08-14T02:34:36.913Z,86.20
2017-08-14T02:37:05.246Z,86.10
2017-08-14T02:39:33.563Z,86.10
2017-08-14T02:42:01.895Z,86.00
2017-08-14T02:44:30.202Z,85.90
2017-08-14T02:46:58.600Z,85.70
2017-08-14T02:49:26.912Z,86.50
2017-08-14T02:51:55.288Z,85.70
2017-08-14T02:54:23.626Z,85.60
2017-08-14T02:56:51.946Z,85.70
2017-08-14T02:59:20.279Z,85.50
2017-08-14T03:01:48.595Z,85.50
2017-08-14T03:04:16.933Z,85.20
2017-08-14T03:06:45.255Z,86.00
2017-08-14T03:09:13.645Z,85.20
2017-08-14T03:11:41.971Z,85.20
2017-08-14T03:14:10.307Z,86.00
2017-08-14T03:16:38.626Z,85.20
2017-08-14T03:19:06.935Z,85.20
2017-08-14T03:21:35.274Z,85.40
2017-08-14T03:24:03.593Z,85.40
2017-08-14T03:26:31.926Z,85.50
2017-08-14T03:29:00.244Z,85.60
2017-08-14T03:31:28.578Z,85.80
2017-08-14T03:33:56.900Z,85.80
2017-08-14T03:36:25.240Z,85.90
2017-08-14T03:38:53.558Z,85.90
2017-08-14T03:41:21.920Z,86.00
2017-08-14T03:43:50.235Z,86.10
2017-08-14T03:46:18.588Z,86.10
2017-08-14T03:48:46.946Z,86.10
2017-08-14T03:51:15.263Z,86.10
2017-08-14T03:53:43.601Z,86.10
2017-08-14T03:56:11.913Z,86.00
2017-08-14T03:58:40.249Z,86.10
2017-08-14T04:01:08.560Z,87.00
2017-08-14T04:03:36.894Z,86.30
2017-08-14T04:06:05.311Z,86.40
2017-08-14T04:08:33.646Z,86.40
2017-08-14T04:11:02.099Z,86.40
2017-08-14T04:13:30.416Z,86.20
2017-08-14T04:15:58.756Z,86.40
2017-08-14T04:18:27.063Z,86.00
2017-08-14T04:20:55.404Z,86.10
2017-08-14T04:23:23.718Z,86.20
2017-08-14T04:25:52.156Z,86.10
2017-08-14T04:28:20.464Z,86.20
2017-08-14T04:30:48.832Z,86.30
2017-08-14T04:33:17.146Z,86.40
2017-08-14T04:35:45.543Z,86.30
2017-08-14T04:38:13.889Z,86.20
2017-08-14T04:40:42.305Z,86.10
2017-08-14T04:43:10.639Z,86.00
2017-08-14T04:45:38.946Z,86.00
2017-08-14T04:48:07.355Z,85.90
2017-08-14T04:50:35.666Z,86.00
2017-08-14T04:53:04.005Z,85.80
2017-08-14T04:55:32.310Z,85.90
2017-08-14T04:58:00.665Z,85.60
2017-08-14T05:00:28.971Z,85.10
2017-08-14T05:02:57.319Z,84.00
2017-08-14T05:05:25.644Z,82.70
2017-08-14T05:07:53.956Z,81.30
2017-08-14T05:10:22.298Z,80.00
2017-08-14T05:12:50.720Z,79.10
2017-08-14T05:15:19.053Z,78.10
2017-08-14T05:17:47.365Z,77.00
2017-08-14T05:20:15.704Z,75.60
2017-08-14T05:22:44.019Z,74.90
2017-08-14T05:25:12.357Z,74.10
2017-08-14T05:27:40.658Z,73.30
2017-08-14T05:30:08.980Z,72.70
2017-08-14T05:32:37.345Z,72.20
2017-08-14T05:35:05.678Z,71.70
2017-08-14T05:37:33.980Z,71.10
2017-08-14T05:40:02.288Z,71.00
2017-08-14T05:42:30.656Z,71.20
2017-08-14T05:44:58.967Z,71.80
2017-08-14T05:47:27.308Z,72.30
2017-08-14T05:49:55.612Z,72.80
2017-08-14T05:52:23.991Z,73.30
2017-08-14T05:54:52.320Z,74.50
2017-08-14T05:57:20.652Z,74.10
2017-08-14T05:59:49.006Z,74.30
2017-08-14T06:02:17.341Z,74.50
2017-08-14T06:04:45.662Z,74.20
2017-08-14T06:07:14.031Z,73.80
2017-08-14T06:09:42.370Z,74.00
2017-08-14T06:12:10.696Z,74.00
2017-08-14T06:14:39.032Z,73.80
2017-08-14T06:17:07.347Z,73.70
2017-08-14T06:19:35.678Z,73.60
2017-08-14T06:22:03.990Z,73.80
2017-08-14T06:24:32.336Z,74.00
2017-08-14T06:27:00.651Z,74.10
2017-08-14T06:29:28.987Z,74.40
2017-08-14T06:31:57.308Z,74.80
2017-08-14T06:34:25.647Z,75.50
2017-08-14T06:36:53.964Z,74.00
2017-08-14T06:39:22.266Z,73.80
2017-08-14T06:41:50.616Z,73.30
2017-08-14T06:44:18.923Z,73.10
2017-08-14T06:46:47.265Z,72.90
2017-08-14T06:49:15.568Z,73.10
2017-08-14T06:51:43.918Z,72.70
2017-08-14T06:54:12.232Z,72.50
2017-08-14T06:56:40.576Z,72.60
2017-08-14T06:59:08.878Z,72.50
2017-08-14T07:01:37.232Z,71.80
2017-08-14T07:04:05.542Z,71.00
2017-08-14T07:06:33.867Z,70.50
2017-08-14T07:09:02.196Z,70.30
2017-08-14T07:11:30.519Z,69.50
2017-08-14T07:13:58.838Z,69.10
2017-08-14T07:16:27.147Z,68.70
2017-08-14T07:18:55.479Z,68.30
2017-08-14T07:21:23.787Z,68.40
2017-08-14T07:23:52.116Z,68.20
2017-08-14T07:26:20.415Z,68.00
2017-08-14T07:28:48.747Z,67.70
2017-08-14T07:31:17.052Z,66.70
2017-08-14T07:33:45.396Z,67.30
2017-08-14T07:36:13.711Z,68.20
2017-08-14T07:38:42.015Z,68.90
2017-08-14T07:41:10.360Z,69.00
2017-08-14T07:43:38.663Z,68.40
2017-08-14T07:46:06.991Z,67.60
2017-08-14T07:48:35.293Z,66.60
2017-08-14T07:51:03.623Z,66.00
2017-08-14T07:53:31.929Z,66.10
2017-08-14T07:56:00.260Z,64.60
2017-08-14T07:58:28.776Z,63.80
2017-08-14T08:00:57.135Z,63.10
2017-08-14T08:03:25.435Z,62.50
2017-08-14T08:05:53.784Z,62.10
2017-08-14T08:08:22.095Z,61.20
2017-08-14T08:10:50.408Z,60.60
2017-08-14T08:13:18.735Z,60.10
2017-08-14T08:15:47.049Z,60.50
2017-08-14T08:18:15.382Z,60.50
2017-08-14T08:20:43.685Z,60.70
2017-08-14T08:23:12.016Z,60.10
2017-08-14T08:25:40.328Z,59.60
2017-08-14T08:28:08.663Z,59.70
2017-08-14T08:30:36.971Z,59.80
2017-08-14T08:33:05.300Z,59.20
2017-08-14T08:35:32.846Z,59.10
2017-08-14T08:38:01.182Z,58.40
2017-08-14T08:40:29.491Z,57.70
2017-08-14T08:42:57.850Z,56.90
2017-08-14T08:45:26.177Z,55.80
2017-08-14T08:47:54.508Z,55.40
2017-08-14T08:50:22.835Z,54.40
2017-08-14T08:52:51.158Z,54.70
2017-08-14T08:55:19.483Z,54.70
2017-08-14T08:57:47.797Z,53.80
2017-08-14T09:00:16.135Z,53.40
2017-08-14T09:02:44.475Z,53.50
2017-08-14T09:05:12.801Z,54.00
2017-08-14T09:07:41.127Z,54.10
2017-08-14T09:10:09.428Z,52.50
2017-08-14T09:12:37.775Z,51.40
2017-08-14T09:15:06.091Z,51.00
2017-08-14T09:17:34.492Z,51.00
2017-08-14T09:20:02.817Z,50.10
2017-08-14T09:22:31.159Z,50.30
2017-08-14T09:24:59.457Z,50.90
2017-08-14T09:27:27.796Z,51.90
2017-08-14T09:29:56.126Z,50.90
2017-08-14T09:32:24.432Z,50.10
2017-08-14T09:34:52.079Z,50.10
2017-08-14T09:37:20.387Z,51.50
2017-08-14T09:39:48.737Z,52.30
2017-08-14T09:42:17.046Z,52.30
2017-08-14T09:44:44.611Z,52.30
2017-08-14T09:47:12.918Z,50.80
2017-08-14T09:49:41.250Z,49.10
2017-08-14T09:52:09.555Z,48.40
2017-08-14T09:54:37.850Z,48.40
2017-08-14T09:57:06.174Z,47.30
2017-08-14T09:59:34.479Z,46.60
2017-08-14T10:02:02.818Z,46.40
2017-08-14T10:04:31.123Z,46.90
2017-08-14T10:06:59.455Z,47.40
2017-08-14T10:09:27.763Z,47.70
2017-08-14T10:11:56.105Z,47.30
2017-08-14T10:14:24.418Z,47.00
2017-08-14T10:16:52.730Z,47.50
2017-08-14T10:19:21.067Z,48.60
2017-08-14T10:21:49.371Z,49.90
2017-08-14T10:24:17.705Z,48.40
2017-08-14T10:26:46.012Z,47.00
2017-08-14T10:29:14.359Z,45.80
2017-08-14T10:31:42.666Z,46.20
2017-08-14T10:34:11.004Z,44.60
2017-08-14T10:36:39.315Z,44.50
2017-08-14T10:39:07.671Z,44.70
2017-08-14T10:41:35.979Z,44.40
2017-08-14T10:44:04.343Z,42.90
2017-08-14T10:46:32.671Z,42.20
2017-08-14T10:49:00.976Z,43.90
2017-08-14T10:51:29.308Z,44.10
2017-08-14T10:53:57.612Z,43.90
2017-08-14T10:56:25.944Z,44.30
2017-08-14T10:58:54.265Z,45.00
2017-08-14T11:01:22.614Z,45.50
2017-08-14T11:03:51.066Z,44.30
2017-08-14T11:06:19.378Z,43.10
2017-08-14T11:08:47.709Z,43.40
2017-08-14T11:11:16.016Z,42.60
2017-08-14T11:13:44.358Z,43.30
2017-08-14T11:16:12.655Z,43.60
2017-08-14T11:18:41.008Z,43.00
2017-08-14T11:21:09.315Z,41.70
2017-08-14T11:23:37.665Z,39.90
2017-08-14T11:26:05.982Z,39.30
2017-08-14T11:28:34.328Z,40.10
2017-08-14T11:31:02.630Z,41.80
2017-08-14T11:33:30.957Z,42.00
2017-08-14T11:35:59.283Z,40.50
2017-08-14T11:38:27.601Z,39.90
2017-08-14T11:40:55.929Z,39.70
2017-08-14T11:43:24.231Z,39.70
2017-08-14T11:45:52.558Z,39.10
2017-08-14T11:48:20.911Z,38.70
2017-08-14T11:50:49.240Z,39.70
2017-08-14T11:53:17.558Z,40.00
2017-08-14T11:55:45.886Z,39.90
2017-08-14T11:58:14.197Z,39.50
2017-08-14T12:00:42.514Z,39.50
2017-08-14T12:03:10.845Z,38.90
2017-08-14T12:05:39.151Z,40.50
2017-08-14T12:08:07.478Z,40.90
2017-08-14T12:10:35.780Z,41.40
2017-08-14T12:13:04.106Z,41.30
2017-08-14T12:15:32.412Z,41.60
2017-08-14T12:18:00.752Z,41.60
2017-08-14T12:20:29.065Z,41.20
2017-08-14T12:22:57.395Z,41.00
2017-08-14T12:25:25.719Z,40.80
2017-08-14T12:27:54.020Z,40.10
2017-08-14T12:30:22.347Z,39.20
2017-08-14T12:32:50.655Z,39.60
2017-08-14T12:35:18.996Z,39.40
2017-08-14T12:37:47.298Z,40.10
2017-08-14T12:40:15.656Z,40.80
2017-08-14T12:42:43.963Z,41.30
2017-08-14T12:45:12.304Z,41.80
2017-08-14T12:47:40.611Z,43.00
2017-08-14T12:50:08.918Z,44.00
2017-08-14T12:52:37.249Z,44.40
2017-08-14T12:55:05.546Z,44.10
2017-08-14T12:57:33.870Z,43.40
2017-08-14T13:00:02.172Z,43.60
2017-08-14T13:02:30.550Z,43.40
2017-08-14T13:04:58.859Z,43.20
2017-08-14T13:07:27.193Z,43.70
2017-08-14T13:09:55.495Z,42.80
2017-08-14T13:12:23.825Z,42.30
2017-08-14T13:14:52.131Z,42.80
2017-08-14T13:17:20.457Z,43.30
2017-08-14T13:19:48.766Z,43.10
2017-08-14T13:22:17.071Z,42.60
2017-08-14T13:24:45.398Z,42.70
2017-08-14T13:27:13.712Z,43.40
2017-08-14T13:29:42.046Z,44.60
2017-08-14T13:32:10.351Z,43.70
2017-08-14T13:34:38.676Z,43.40
2017-08-14T13:37:06.985Z,44.30
2017-08-14T13:39:35.320Z,44.80
2017-08-14T13:42:03.622Z,44.50
2017-08-14T13:44:31.926Z,43.70
2017-08-14T13:47:00.255Z,43.20
2017-08-14T13:49:28.562Z,43.20
2017-08-14T13:51:56.895Z,42.70
2017-08-14T13:54:25.207Z,43.60
2017-08-14T13:56:53.536Z,45.00
2017-08-14T13:59:21.839Z,45.60
2017-08-14T14:01:50.145Z,45.60
2017-08-14T14:04:18.476Z,45.50
2017-08-14T14:06:46.780Z,45.40
2017-08-14T14:09:15.107Z,44.60
2017-08-14T14:11:43.425Z,44.40
2017-08-14T14:14:11.980Z,45.20
2017-08-14T14:16:40.291Z,45.00
2017-08-14T14:19:08.621Z,44.30
2017-08-14T14:21:36.924Z,43.40
2017-08-14T14:24:05.250Z,43.10
2017-08-14T14:26:33.556Z,42.50
2017-08-14T14:29:01.863Z,40.30
2017-08-14T14:31:30.188Z,38.60
2017-08-14T14:33:58.500Z,38.80
2017-08-14T14:36:26.828Z,38.50
2017-08-14T14:38:55.140Z,37.60
2017-08-14T14:41:23.471Z,38.10
2017-08-14T14:43:51.783Z,38.10
2017-08-14T14:46:20.115Z,38.10
2017-08-14T14:48:48.422Z,38.00
2017-08-14T14:51:16.772Z,36.30
2017-08-14T14:53:45.082Z,37.00
2017-08-14T14:56:13.385Z,37.30
2017-08-14T14:58:41.724Z,37.80
2017-08-14T15:01:10.027Z,38.50
2017-08-14T15:03:38.357Z,39.60
2017-08-14T15:06:06.670Z,40.30
2017-08-14T15:08:34.999Z,40.80
2017-08-14T15:11:03.309Z,40.60
2017-08-14T15:13:31.638Z,40.00
2017-08-14T15:15:59.946Z,40.70
2017-08-14T15:18:28.278Z,40.40
2017-08-14T15:20:56.589Z,39.30
2017-08-14T15:23:24.894Z,38.30
2017-08-14T15:25:53.218Z,38.40
2017-08-14T15:28:21.523Z,39.30
2017-08-14T15:30:49.848Z,39.30
2017-08-14T15:33:18.155Z,38.30
2017-08-14T15:35:46.483Z,38.50
2017-08-14T15:38:14.792Z,39.00
2017-08-14T15:40:43.121Z,38.80
2017-08-14T15:43:11.428Z,39.40
2017-08-14T15:45:39.759Z,39.40
2017-08-14T15:48:08.068Z,39.60
2017-08-14T15:50:36.375Z,40.40
2017-08-14T15:53:04.711Z,39.30
2017-08-14T15:55:33.014Z,39.20
2017-08-14T15:58:01.344Z,39.00
2017-08-14T16:00:29.678Z,38.50
2017-08-14T16:02:58.032Z,38.00
2017-08-14T16:05:26.389Z,37.30
2017-08-14T16:07:54.730Z,37.50
2017-08-14T16:10:23.044Z,38.00
2017-08-14T16:12:51.351Z,38.10
2017-08-14T16:15:19.682Z,37.70
2017-08-14T16:17:47.983Z,37.70
2017-08-14T16:20:16.309Z,37.90
2017-08-14T16:22:44.611Z,38.10
2017-08-14T16:25:12.935Z,37.90
2017-08-14T16:27:41.247Z,38.50
2017-08-14T16:30:09.575Z,39.10
2017-08-14T16:32:37.907Z,39.40
2017-08-14T16:35:06.226Z,39.20
2017-08-14T16:37:34.534Z,39.30
2017-08-14T16:40:02.865Z,38.60
2017-08-14T16:42:31.172Z,39.00
2017-08-14T16:44:59.491Z,40.10
2017-08-14T16:47:27.803Z,39.80
2017-08-14T16:49:56.116Z,40.30
2017-08-14T16:52:24.440Z,40.50
2017-08-14T16:54:52.739Z,40.00
2017-08-14T16:57:21.067Z,40.20
2017-08-14T16:59:49.380Z,39.60
2017-08-14T17:02:17.707Z,39.80
2017-08-14T17:04:46.004Z,39.80
2017-08-14T17:07:14.324Z,39.90
2017-08-14T17:09:42.628Z,40.00
2017-08-14T17:12:10.952Z,40.00
2017-08-14T17:14:39.251Z,37.80
2017-08-14T17:17:07.559Z,36.40
2017-08-14T17:19:35.884Z,35.00
2017-08-14T17:22:04.197Z,33.80
2017-08-14T17:24:32.523Z,32.30
2017-08-14T17:27:00.837Z,32.00
2017-08-14T17:29:29.167Z,31.60
2017-08-14T17:31:57.476Z,30.70
2017-08-14T17:34:25.798Z,30.00
2017-08-14T17:36:54.106Z,29.70
2017-08-14T17:39:22.451Z,29.20
2017-08-14T17:41:50.757Z,28.80
2017-08-14T17:44:19.071Z,28.80
2017-08-14T17:46:47.401Z,29.20
2017-08-14T17:49:15.708Z,29.50
2017-08-14T17:51:44.043Z,29.30
2017-08-14T17:54:12.352Z,29.60
2017-08-14T17:56:40.681Z,30.30
2017-08-14T17:59:08.995Z,32.30
2017-08-14T18:01:37.319Z,34.60
2017-08-14T18:04:05.624Z,36.60
2017-08-14T18:06:33.966Z,38.60
2017-08-14T18:09:02.267Z,40.70
2017-08-14T18:11:30.575Z,42.40
2017-08-14T18:13:58.898Z,43.50
2017-08-14T18:16:27.335Z,44.80
2017-08-14T18:18:55.756Z,46.00
2017-08-14T18:21:24.180Z,47.70
2017-08-14T18:23:52.504Z,49.30
2017-08-14T18:26:20.816Z,50.60
2017-08-14T18:28:49.151Z,51.80
2017-08-14T18:31:16.703Z,51.70
2017-08-14T18:33:45.061Z,54.10
2017-08-14T18:36:13.417Z,55.30
2017-08-14T18:38:41.744Z,56.50
2017-08-14T18:41:10.082Z,58.00
2017-08-14T18:43:38.399Z,58.70
2017-08-14T18:46:06.756Z,59.90
2017-08-14T18:48:35.077Z,60.70
2017-08-14T18:51:03.458Z,61.40
2017-08-14T18:53:31.768Z,62.70
2017-08-14T18:56:00.096Z,63.20
2017-08-14T18:58:28.405Z,64.10
2017-08-14T19:00:56.731Z,64.80
2017-08-14T19:03:25.046Z,65.70
2017-08-14T19:05:53.381Z,67.00
2017-08-14T19:08:23.531Z,67.70
2017-08-14T19:10:50.160Z,68.00
2017-08-14T19:13:18.479Z,68.10
2017-08-14T19:15:46.895Z,68.90
2017-08-14T19:18:15.219Z,69.70
2017-08-14T19:20:43.531Z,70.40
2017-08-14T19:23:11.879Z,71.00
2017-08-14T19:25:40.245Z,71.40
2017-08-14T19:28:08.712Z,72.00
2017-08-14T19:30:37.039Z,73.30
2017-08-14T19:33:05.391Z,72.80
2017-08-14T19:35:33.776Z,73.30
2017-08-14T19:38:02.111Z,73.40
2017-08-14T19:40:30.525Z,75.00
2017-08-14T19:42:58.837Z,74.90
2017-08-14T19:45:27.167Z,75.20
2017-08-14T19:47:55.479Z,75.40
2017-08-14T19:50:23.812Z,75.70
2017-08-14T19:52:52.120Z,76.20
2017-08-14T19:55:20.451Z,76.40
2017-08-14T19:57:48.784Z,76.80
2017-08-14T20:00:17.127Z,77.00
2017-08-14T20:02:45.459Z,77.50
2017-08-14T20:05:13.804Z,77.80
2017-08-14T20:07:42.120Z,78.00
2017-08-14T20:10:10.447Z,78.20
2017-08-14T20:12:38.781Z,78.80
2017-08-14T20:15:07.100Z,78.90
2017-08-14T20:17:35.437Z,79.00
2017-08-14T20:20:03.750Z,79.10
2017-08-14T20:22:32.088Z,79.50
2017-08-14T20:25:00.449Z,79.90
2017-08-14T20:27:28.775Z,80.20
2017-08-14T20:29:57.104Z,80.60
2017-08-14T20:32:25.447Z,81.00
2017-08-14T20:34:53.754Z,81.20
2017-08-14T20:37:22.071Z,81.30
2017-08-14T20:39:50.406Z,81.40
2017-08-14T20:42:18.720Z,81.60
2017-08-14T20:44:47.052Z,81.90
2017-08-14T20:47:15.360Z,82.10
2017-08-14T20:49:43.732Z,82.30
2017-08-14T20:52:11.279Z,82.20
2017-08-14T20:54:38.847Z,82.20
2017-08-14T20:57:07.153Z,82.30
2017-08-14T20:59:35.479Z,82.50
2017-08-14T21:02:03.779Z,82.70
2017-08-14T21:04:32.083Z,82.60
2017-08-14T21:07:00.421Z,82.60
2017-08-14T21:09:28.722Z,82.70
2017-08-14T21:11:57.044Z,82.80
2017-08-14T21:14:25.361Z,83.20
2017-08-14T21:16:53.682Z,83.50
2017-08-14T21:19:21.996Z,83.40
2017-08-14T21:21:50.331Z,83.60
2017-08-14T21:24:18.656Z,83.60
2017-08-14T21:26:46.962Z,83.80
2017-08-14T21:29:15.292Z,84.00
2017-08-14T21:31:43.600Z,84.30
2017-08-14T21:34:11.923Z,84.50
2017-08-14T21:36:40.232Z,84.50
2017-08-14T21:39:08.567Z,84.50
2017-08-14T21:41:36.867Z,84.50
2017-08-14T21:44:05.199Z,84.40
2017-08-14T21:46:33.507Z,84.30
2017-08-14T21:49:01.823Z,84.30
2017-08-14T21:51:30.157Z,84.40
2017-08-14T21:53:58.480Z,84.40
2017-08-14T21:56:26.811Z,84.70
2017-08-14T21:58:55.135Z,84.70
2017-08-14T22:01:23.468Z,84.90
2017-08-14T22:03:51.787Z,84.90
2017-08-14T22:06:20.411Z,85.00
2017-08-14T22:08:48.723Z,85.00
2017-08-14T22:11:17.047Z,85.00
2017-08-14T22:13:45.371Z,85.00
2017-08-14T22:16:13.688Z,85.20
2017-08-14T22:18:42.017Z,85.20
2017-08-14T22:21:10.336Z,85.00
2017-08-14T22:23:38.672Z,85.00
2017-08-14T22:26:06.998Z,85.10
2017-08-14T22:28:35.326Z,85.20
2017-08-14T22:31:03.660Z,85.40
2017-08-14T22:33:31.990Z,85.70
2017-08-14T22:36:00.303Z,85.80
2017-08-14T22:38:28.625Z,85.70
2017-08-14T22:40:56.950Z,85.90
2017-08-14T22:43:25.268Z,86.00
2017-08-14T22:45:53.599Z,86.00
2017-08-14T22:48:21.920Z,86.00
2017-08-14T22:50:50.295Z,85.90
2017-08-14T22:53:18.606Z,86.10
2017-08-14T22:55:46.951Z,86.20
2017-08-14T22:58:15.253Z,86.00
2017-08-14T23:00:43.581Z,86.00
2017-08-14T23:03:11.914Z,86.10
2017-08-14T23:05:40.231Z,86.10
2017-08-14T23:08:08.560Z,86.10
2017-08-14T23:10:36.885Z,86.10
2017-08-14T23:13:05.225Z,86.10
2017-08-14T23:15:33.540Z,86.10
2017-08-14T23:18:01.873Z,86.00
2017-08-14T23:20:30.196Z,86.10
2017-08-14T23:22:58.523Z,86.10
2017-08-14T23:25:26.848Z,85.80
2017-08-14T23:27:55.155Z,85.90
2017-08-14T23:30:23.482Z,85.90
2017-08-14T23:32:51.798Z,86.10
2017-08-14T23:35:20.125Z,86.10
2017-08-14T23:37:48.443Z,86.10
2017-08-14T23:40:16.767Z,86.10
2017-08-14T23:42:45.074Z,86.10
2017-08-14T23:45:13.712Z,86.10
2017-08-14T23:47:42.016Z,86.00
2017-08-14T23:50:10.323Z,86.10
2017-08-14T23:52:38.644Z,86.20
2017-08-14T23:55:06.947Z,86.20
2017-08-14T23:57:35.283Z,86.30
